Aviation Digital Data Service (ADDS)

Output produced by TAFs form (0621 UTC 30 January 2015)
found at http://www.aviationweather.gov/adds/tafs/
 
KGFL 300537Z 3006/3106 20005KT 3SM -SN BR BKN020 OVC030 
     TEMPO 3008/3012 1SM -SN BKN010 
     FM301200 23005KT 1 1/2SM -SN OVC015 
     FM301500 32009KT 4SM -SHSN BKN015 BKN035 
     FM302000 34010G20KT P6SM VCSH BKN025 BKN035